Time;durP1;ratioP1;P1;durP2;ratioP2;P2;SDS_P1;SDS_P2;PMS_P1;PMS_P2;Temp;Humidity;BMP_temperature;BMP_pressure;BME280_temperature;BME280_humidity;BME280_pressure;Samples;Min_cycle;Max_cycle;Signal;HPM_P1;HPM_P2
2021/03/29 00:03:34;;;;;;;0.30;0.30;;;10.30;99.90;;;;;;20821605;28;20257;-68
2021/03/29 00:13:38;;;;;;;0.43;0.43;;;10.70;99.90;;;;;;20820406;28;20202;-68
2021/03/29 00:23:41;;;;;;;0.20;0.10;;;10.80;99.90;;;;;;20869851;28;20280;-70
2021/03/29 00:33:47;;;;;;;0.20;0.10;;;11.00;99.90;;;;;;20901346;28;20290;-69
2021/03/29 00:43:51;;;;;;;0.57;0.57;;;10.50;99.90;;;;;;20830629;28;20268;-68
2021/03/29 00:53:57;;;;;;;0.20;0.20;;;10.50;99.90;;;;;;20817738;28;20198;-69
2021/03/29 01:04:02;;;;;;;0.20;0.20;;;10.50;99.90;;;;;;20762767;28;20230;-69
2021/03/29 01:14:09;;;;;;;0.20;0.10;;;10.30;99.90;;;;;;20747916;28;20203;-69
2021/03/29 01:24:17;;;;;;;0.20;0.10;;;10.20;99.90;;;;;;20857394;28;20261;-69
2021/03/29 01:34:21;;;;;;;1.13;0.93;;;10.00;99.90;;;;;;20895644;28;20201;-68
2021/03/29 01:44:26;;;;;;;0.20;0.10;;;9.50;99.90;;;;;;20895929;28;20613;-70
2021/03/29 01:54:30;;;;;;;0.33;0.33;;;9.40;99.90;;;;;;20895584;28;20197;-68
2021/03/29 02:04:34;;;;;;;0.20;0.20;;;9.10;99.90;;;;;;20789858;22;20742;-71
2021/03/29 02:14:39;;;;;;;0.47;0.47;;;9.10;99.90;;;;;;20649892;28;20278;-72
2021/03/29 02:24:42;;;;;;;0.40;0.40;;;9.00;99.90;;;;;;20714727;28;20233;-72
2021/03/29 02:34:46;;;;;;;0.20;0.10;;;9.20;99.90;;;;;;20730543;28;20463;-72
2021/03/29 02:44:49;;;;;;;0.30;0.23;;;9.10;99.90;;;;;;20729944;28;20590;-73
2021/03/29 02:54:54;;;;;;;0.40;0.40;;;9.00;99.90;;;;;;20729953;28;20286;-73
2021/03/29 03:04:57;;;;;;;0.20;0.10;;;8.80;99.90;;;;;;20743484;28;20297;-73
2021/03/29 03:15:01;;;;;;;0.63;0.63;;;8.70;99.90;;;;;;20746105;28;20206;-74
2021/03/29 03:25:17;;;;;;;0.27;0.27;;;8.50;99.90;;;;;;20674511;28;20589;-72
2021/03/29 03:35:22;;;;;;;0.40;0.33;;;8.40;99.90;;;;;;20672352;28;20242;-72
2021/03/29 03:45:28;;;;;;;0.20;0.17;;;8.80;99.90;;;;;;20659519;28;20255;-72
2021/03/29 03:55:33;;;;;;;0.20;0.20;;;9.10;99.90;;;;;;20660602;28;20665;-73
2021/03/29 04:05:36;;;;;;;0.20;0.20;;;8.90;99.90;;;;;;20675156;28;20293;-70
2021/03/29 04:15:54;;;;;;;0.20;0.10;;;8.90;99.90;;;;;;20646643;28;20248;-71
2021/03/29 04:25:57;;;;;;;0.20;0.13;;;9.10;99.90;;;;;;20657479;28;20203;-71
2021/03/29 04:36:01;;;;;;;0.20;0.20;;;9.40;99.90;;;;;;20656758;28;20231;-71
2021/03/29 04:46:04;;;;;;;0.23;0.23;;;9.50;99.90;;;;;;20655815;28;20218;-71
2021/03/29 04:56:08;;;;;;;0.50;0.50;;;9.20;99.90;;;;;;20655090;28;20720;-73
2021/03/29 05:06:10;;;;;;;1.47;1.00;;;9.10;99.90;;;;;;20710061;28;20471;-72
2021/03/29 05:16:14;;;;;;;1.90;0.50;;;9.20;99.90;;;;;;20734620;28;20203;-71
2021/03/29 05:26:16;;;;;;;6.80;0.67;;;9.00;99.90;;;;;;20732479;28;20194;-71
2021/03/29 05:36:20;;;;;;;0.20;0.20;;;9.00;99.90;;;;;;20732089;28;20718;-71
2021/03/29 05:46:23;;;;;;;0.20;0.10;;;9.00;99.90;;;;;;20713340;28;20322;-71
2021/03/29 05:56:28;;;;;;;0.70;0.60;;;8.90;99.90;;;;;;20734846;28;20230;-72
2021/03/29 06:06:31;;;;;;;0.20;0.20;;;9.20;99.90;;;;;;20753194;28;20298;-72
2021/03/29 06:16:52;;;;;;;0.70;0.70;;;9.70;99.90;;;;;;20733386;28;20243;-72
2021/03/29 06:27:04;;;;;;;0.67;0.37;;;9.70;99.90;;;;;;20567435;28;20208;-71
2021/03/29 06:37:08;;;;;;;0.90;0.73;;;10.20;99.90;;;;;;20659438;28;20317;-73
2021/03/29 06:47:14;;;;;;;0.20;0.20;;;10.70;99.90;;;;;;20674038;28;20195;-73
2021/03/29 06:57:31;;;;;;;1.50;1.03;;;11.40;99.90;;;;;;20673654;28;20326;-72
2021/03/29 07:07:33;;;;;;;0.27;0.27;;;11.80;99.90;;;;;;20653472;28;20582;-71
2021/03/29 07:17:39;;;;;;;0.30;0.20;;;12.00;99.90;;;;;;20659431;28;20238;-69
2021/03/29 07:27:44;;;;;;;0.40;0.33;;;12.40;99.90;;;;;;20755690;28;20226;-71
2021/03/29 07:37:57;;;;;;;0.93;0.83;;;13.00;99.90;;;;;;20702317;28;20326;-70
2021/03/29 07:47:59;;;;;;;0.87;0.87;;;13.50;99.90;;;;;;20715100;28;20285;-71
2021/03/29 07:58:13;;;;;;;3.70;1.30;;;14.00;99.90;;;;;;20718209;28;20275;-72
2021/03/29 08:08:38;;;;;;;0.93;0.23;;;14.40;99.90;;;;;;20709150;28;20227;-70
2021/03/29 08:19:10;;;;;;;0.90;0.67;;;14.50;99.90;;;;;;20664607;28;20233;-70
2021/03/29 08:29:14;;;;;;;1.30;0.67;;;14.70;99.90;;;;;;20715382;28;20220;-71
2021/03/29 08:39:18;;;;;;;0.80;0.60;;;15.00;99.90;;;;;;20655347;28;20286;-70
2021/03/29 08:49:21;;;;;;;1.40;0.60;;;15.30;99.90;;;;;;20636522;28;20323;-71
2021/03/29 08:59:28;;;;;;;0.30;0.20;;;15.30;99.90;;;;;;20652379;28;20263;-70
2021/03/29 09:09:33;;;;;;;0.40;0.40;;;15.70;99.90;;;;;;20671377;28;20206;-69
2021/03/29 09:19:36;;;;;;;0.30;0.30;;;15.80;99.90;;;;;;20647011;28;20650;-70
2021/03/29 09:29:41;;;;;;;0.63;0.37;;;16.10;99.90;;;;;;20713924;28;20226;-70
2021/03/29 09:39:45;;;;;;;0.20;0.10;;;16.20;99.90;;;;;;20674912;28;20704;-69
2021/03/29 09:49:49;;;;;;;3.50;1.20;;;16.50;99.90;;;;;;20649587;28;20230;-67
2021/03/29 09:59:53;;;;;;;0.60;0.60;;;16.90;99.90;;;;;;20649828;28;20627;-68
2021/03/29 10:10:01;;;;;;;0.20;0.13;;;16.80;99.90;;;;;;20648453;28;20283;-68
2021/03/29 10:20:10;;;;;;;0.40;0.30;;;17.00;99.90;;;;;;20640640;28;20310;-73
2021/03/29 10:30:24;;;;;;;0.20;0.20;;;17.50;99.90;;;;;;20707995;28;20278;-68
2021/03/29 10:40:27;;;;;;;0.20;0.10;;;17.90;99.90;;;;;;20710552;28;20273;-69
2021/03/29 10:50:30;;;;;;;0.37;0.20;;;18.30;99.90;;;;;;20709988;28;20675;-69
2021/03/29 11:00:34;;;;;;;0.20;0.10;;;18.70;99.90;;;;;;20669523;28;20318;-65
2021/03/29 11:10:38;;;;;;;0.23;0.20;;;19.10;99.90;;;;;;20647828;28;20298;-66
2021/03/29 11:20:58;;;;;;;0.27;0.27;;;20.10;99.90;;;;;;20665675;28;20258;-68
2021/03/29 11:31:01;;;;;;;0.37;0.37;;;20.60;99.90;;;;;;20659827;28;20724;-67
2021/03/29 11:41:05;;;;;;;0.20;0.10;;;21.00;99.90;;;;;;20658448;28;20674;-69
2021/03/29 11:51:08;;;;;;;0.30;0.20;;;21.40;99.90;;;;;;20694686;28;20306;-68
2021/03/29 12:01:16;;;;;;;0.73;0.43;;;22.00;99.90;;;;;;20657750;28;20239;-62
2021/03/29 12:21:42;;;;;;;1.33;0.47;;;22.60;99.90;;;;;;20656205;28;20314;-66
2021/03/29 12:31:46;;;;;;;0.70;0.20;;;23.00;99.90;;;;;;20636946;28;20207;-64
2021/03/29 12:41:53;;;;;;;0.73;0.40;;;23.40;99.90;;;;;;20653862;28;20285;-68
2021/03/29 12:51:58;;;;;;;1.23;0.40;;;23.00;99.90;;;;;;20655476;28;20681;-67
2021/03/29 13:02:01;;;;;;;2.00;0.60;;;23.40;99.90;;;;;;20676851;28;20218;-66
2021/03/29 13:12:05;;;;;;;4.00;1.23;;;24.00;99.90;;;;;;20679582;28;20551;-67
2021/03/29 13:22:09;;;;;;;0.38;0.38;;;23.60;99.90;;;;;;20697046;28;20269;-66
2021/03/29 13:32:13;;;;;;;0.50;0.23;;;24.00;99.90;;;;;;20703651;28;20619;-66
2021/03/29 13:42:16;;;;;;;0.55;0.32;;;24.70;99.90;;;;;;20649033;28;20573;-67
2021/03/29 13:52:24;;;;;;;2.15;1.33;;;24.30;99.90;;;;;;20649041;28;20200;-68
2021/03/29 14:02:27;;;;;;;0.60;0.40;;;24.30;99.90;;;;;;20648177;28;20314;-69
2021/03/29 14:12:30;;;;;;;0.40;0.40;;;23.90;99.90;;;;;;20647947;28;20200;-67
2021/03/29 14:22:33;;;;;;;1.23;0.77;;;24.30;99.90;;;;;;20695918;28;20318;-67
2021/03/29 14:32:36;;;;;;;0.20;0.10;;;24.90;99.90;;;;;;20666655;28;20682;-67
2021/03/29 14:42:44;;;;;;;0.85;0.63;;;24.70;99.90;;;;;;20718908;28;20321;-67
2021/03/29 14:52:47;;;;;;;0.82;0.32;;;24.40;99.90;;;;;;20731727;28;20195;-66
2021/03/29 15:03:02;;;;;;;0.28;0.13;;;24.90;99.90;;;;;;20744216;28;20238;-66
2021/03/29 15:13:09;;;;;;;2.60;0.25;;;24.20;99.90;;;;;;20662854;28;20196;-68
2021/03/29 15:23:13;;;;;;;0.40;0.40;;;24.70;99.90;;;;;;20714248;28;20642;-67
2021/03/29 15:33:15;;;;;;;0.60;0.50;;;24.50;99.90;;;;;;20735017;28;20222;-68
2021/03/29 15:43:19;;;;;;;1.13;0.65;;;24.30;99.90;;;;;;20660034;28;20224;-67
2021/03/29 15:53:21;;;;;;;9.00;0.73;;;24.00;99.90;;;;;;20660605;28;20202;-72
2021/03/29 16:03:27;;;;;;;1.03;0.50;;;23.30;99.90;;;;;;20641248;28;20234;-67
2021/03/29 16:13:30;;;;;;;2.00;0.23;;;22.50;99.90;;;;;;20651270;28;20199;-69
2021/03/29 16:23:34;;;;;;;0.20;0.10;;;21.30;99.90;;;;;;20724321;28;20695;-67
2021/03/29 16:33:37;;;;;;;0.20;0.20;;;21.00;99.90;;;;;;20699966;28;20195;-67
2021/03/29 16:43:41;;;;;;;0.20;0.10;;;20.30;99.90;;;;;;20655062;28;20779;-68
2021/03/29 16:53:44;;;;;;;0.20;0.10;;;19.70;99.90;;;;;;20653964;28;20351;-67
2021/03/29 17:03:47;;;;;;;0.60;0.20;;;19.40;99.90;;;;;;20655040;28;20335;-68
2021/03/29 17:13:50;;;;;;;0.20;0.20;;;19.30;99.90;;;;;;20654045;28;20282;-68
2021/03/29 17:23:53;;;;;;;0.20;0.20;;;19.00;99.90;;;;;;20707349;28;20770;-69
2021/03/29 17:33:56;;;;;;;0.90;0.57;;;18.60;99.90;;;;;;20708124;28;20214;-69
2021/03/29 17:44:00;;;;;;;0.63;0.47;;;18.50;99.90;;;;;;20633003;28;20295;-68
2021/03/29 17:54:02;;;;;;;1.80;0.90;;;17.80;99.90;;;;;;20651675;28;20238;-70
2021/03/29 18:04:06;;;;;;;0.67;0.63;;;17.50;99.90;;;;;;20704866;28;20266;-69
2021/03/29 18:14:09;;;;;;;1.53;0.60;;;17.10;99.90;;;;;;20695918;28;20203;-68
2021/03/29 18:24:13;;;;;;;4.80;0.87;;;16.60;99.90;;;;;;20718468;28;20222;-69
2021/03/29 18:34:16;;;;;;;1.13;1.03;;;16.20;99.90;;;;;;20665951;28;20303;-69
2021/03/29 18:44:19;;;;;;;0.37;0.30;;;16.00;99.90;;;;;;20672692;28;20320;-69
2021/03/29 18:54:21;;;;;;;4.40;1.10;;;15.60;99.90;;;;;;20660903;28;20226;-72
2021/03/29 19:04:25;;;;;;;0.83;0.63;;;15.50;99.90;;;;;;20701532;28;20308;-70
2021/03/29 19:14:30;;;;;;;3.60;1.17;;;15.40;99.90;;;;;;20728656;28;20238;-70
2021/03/29 19:24:35;;;;;;;0.70;0.70;;;15.30;99.90;;;;;;20708610;28;20253;-72
2021/03/29 19:34:40;;;;;;;0.20;0.10;;;14.80;99.90;;;;;;20674971;28;20207;-70
2021/03/29 19:44:43;;;;;;;0.90;0.73;;;14.00;99.90;;;;;;20736141;28;20288;-71
2021/03/29 19:54:46;;;;;;;3.13;0.37;;;13.70;99.90;;;;;;20741607;28;20223;-71
2021/03/29 20:04:51;;;;;;;0.30;0.30;;;13.40;99.90;;;;;;20741557;28;20770;-70
2021/03/29 20:14:53;;;;;;;0.47;0.40;;;13.40;99.90;;;;;;20655719;28;20219;-71
2021/03/29 20:24:56;;;;;;;0.40;0.40;;;12.80;99.90;;;;;;20657396;28;20314;-72
2021/03/29 20:35:01;;;;;;;0.30;0.30;;;12.50;99.90;;;;;;20686046;28;20679;-72
2021/03/29 20:45:06;;;;;;;2.20;0.33;;;12.30;99.90;;;;;;20728344;28;20249;-72
2021/03/29 20:55:09;;;;;;;0.90;0.90;;;12.00;99.90;;;;;;20655054;28;20727;-71
2021/03/29 21:05:14;;;;;;;0.57;0.57;;;12.10;99.90;;;;;;20654040;28;20274;-72
2021/03/29 21:15:17;;;;;;;0.50;0.50;;;11.70;99.90;;;;;;20636187;28;20222;-73
2021/03/29 21:25:22;;;;;;;0.30;0.30;;;11.70;99.90;;;;;;20652548;28;20648;-70
2021/03/29 21:35:37;;;;;;;7.23;0.70;;;11.50;99.90;;;;;;20683795;28;20578;-72
2021/03/29 21:45:40;;;;;;;0.23;0.23;;;11.40;99.90;;;;;;20732027;28;20255;-72
2021/03/29 21:55:43;;;;;;;0.23;0.23;;;11.70;99.90;;;;;;20714618;28;21003;-72
2021/03/29 22:05:46;;;;;;;0.63;0.63;;;11.50;99.90;;;;;;20730324;28;20898;-72
2021/03/29 22:15:49;;;;;;;0.20;0.17;;;10.90;99.90;;;;;;20730927;28;20266;-72
2021/03/29 22:25:52;;;;;;;0.20;0.20;;;10.90;99.90;;;;;;20683210;28;20258;-72
2021/03/29 22:46:22;;;;;;;0.30;0.30;;;10.90;99.90;;;;;;20714170;28;20373;-72
2021/03/29 22:56:24;;;;;;;0.90;0.30;;;10.60;99.90;;;;;;20730707;28;20207;-72
2021/03/29 23:06:28;;;;;;;1.27;0.60;;;10.70;99.90;;;;;;20731727;28;20322;-70
2021/03/29 23:16:30;;;;;;;0.20;0.20;;;10.50;99.90;;;;;;20691430;28;20204;-71
2021/03/29 23:26:34;;;;;;;0.40;0.40;;;10.70;99.90;;;;;;20664368;28;20258;-74
2021/03/29 23:36:36;;;;;;;0.50;0.40;;;10.40;99.90;;;;;;20693365;28;20199;-72
2021/03/29 23:46:40;;;;;;;0.63;0.43;;;10.30;99.90;;;;;;20745610;28;20318;-73
2021/03/29 23:56:42;;;;;;;0.20;0.10;;;10.60;99.90;;;;;;20744617;28;20219;-73
